Weather at Lower Koretica Airport [CLOSED]

Public forecast

Using degrees Celsius for public forecast. Weather courtesy of forecast.io.

Closest aviation weather report (METAR) to Lower Koretica Airport

Closest report is Priština Adem Jashari International Airport, 5.9 nm (10.9 km) ESE.

2022/11/27 08:00 (retrieved 10 minutes ago)

BKPR 270800Z 33006KT 9999 FEW010 BKN090 03/01 Q1027 NOSIG

Closest aviation forecast (TAF) to Lower Koretica Airport

Closest forecast is Priština Adem Jashari International Airport, 5.9 nm (10.9 km) ESE.

2022/11/27 06:00 (retrieved 2 hours ago)

TAF BKPR 270530Z 2706/2806 02006KT 9999 SCT040 TEMPO 2712/2718 5000 -RA BKN012 PROB40 TEMPO 2714/2718 3000 -SNRA PROB40 TEMPO 2718/2804 4000 -SN BKN008